Latest Coastal Weather Observations for Geraldton Airport

IDW60701

Issued at 7:03 am WST Tuesday 24 January 2017 (issued every 10 minutes, with the page automatically refreshed every 10 minutes)

About coastal observations | Map of coastal stations | Coastal observations for WA | Marine services | Other Formats
Station Details ID: 008315 Name: GERALDTON AIRPORT Lat: -28.80 Lon: 114.70 Height: 29.7 m
Data from the previous 72 hours. | See also: Recent months at Geraldton Airport
Date/Time
WST
Temp
°C
Wind Pressure Rain since
9am
mm
Weather Cloud Vis
km
Sea
Height
m
Swell
Dir  Spd
kts
Gust
kts
hPa Trend Height
m
Period
s
Dir
24/06:30am 14.2 SE 8 11 1014.1 - 0.0 - - 10 - - - -
24/06:00am 13.3 SE 8 11 1014.0 - 0.0 - - 10 - - - -
24/05:30am 13.1 SSE 8 9 1014.0 - 0.0 - - 10 - - - -
24/05:00am 13.3 SE 8 9 1013.9 - 0.0 - - 10 - - - -
24/04:30am 13.7 SE 8 10 1013.9 - 0.0 - - 10 - - - -
24/04:00am 14.3 SSE 9 11 1013.9 - 0.0 - - 10 - - - -
24/03:30am 15.0 SE 8 10 1014.1 - 0.0 - - 10 - - - -
24/03:00am 15.7 SE 9 11 1013.9 - 0.0 - - 10 - - - -
24/02:30am 16.4 SSE 11 15 1014.1 - 0.0 - - 10 - - - -
24/02:00am 16.8 SSE 14 19 1014.2 - 0.0 - - 10 - - - -
24/01:30am 17.1 SSE 13 18 1014.5 - 0.0 - - 10 - - - -
24/01:00am 17.5 SSE 15 19 1014.6 - 0.0 - - 10 - - - -
24/12:30am 17.7 SSE 15 20 1014.5 - 0.0 - - 10 - - - -
24/12:00am 18.0 SSE 15 19 1014.5 - 0.0 - - 10 - - - -
 
Date/Time
WST
Temp
°C
Wind Pressure Rain since
9am
mm
Weather Cloud Vis
km
Sea
Height
m
Swell
Dir  Spd
kts
Gust
kts
hPa Trend Height
m
Period
s
Dir
23/11:30pm 18.2 SSE 13 17 1015.1 - 0.0 - - 10 - - - -
23/11:00pm 18.9 SSE 16 20 1015.2 - 0.0 - - 10 - - - -
23/10:30pm 19.4 SSE 16 23 1015.1 - 0.0 - - 10 - - - -
23/10:00pm 19.7 S 18 23 1014.8 - 0.0 - - 10 - - - -
23/09:30pm 19.8 S 20 27 1014.5 - 0.0 - - 10 - - - -
23/09:00pm 19.8 S 19 26 1014.1 - 0.0 - - 10 - - - -
23/08:30pm 19.9 S 19 26 1014.1 - 0.0 - - 10 - - - -
23/08:00pm 20.0 S 20 28 1013.8 - 0.0 - - 10 - - - -
23/07:30pm 20.3 S 21 28 1013.4 - 0.0 - - 10 - - - -
23/07:00pm 20.8 S 19 26 1013.2 - 0.0 - - 10 - - - -
23/06:30pm 21.3 S 22 29 1013.0 - 0.0 - - 10 - - - -
23/06:00pm 21.8 S 23 31 1012.6 - 0.0 - - 10 - - - -
23/05:30pm 22.4 S 24 31 1012.8 - 0.0 - - 10 - - - -
23/05:00pm 22.6 S 24 31 1012.6 - 0.0 - - 10 - - - -
23/04:30pm 23.3 S 23 29 1012.7 - 0.0 - - 10 - - - -
23/04:00pm 23.5 S 23 31 1012.8 - 0.0 - - 10 - - - -
23/03:30pm 24.3 S 23 30 1013.1 - 0.0 - - 10 - - - -
23/03:00pm 24.5 S 23 29 1012.9 - 0.0 - - 10 - - - -
23/02:30pm 25.5 S 22 29 1013.3 - 0.0 - - 10 - - - -
23/02:00pm 24.7 S 24 29 1013.4 - 0.0 - - 10 - - - -
23/01:30pm 24.9 S 22 29 1013.5 - 0.0 - - 10 - - - -
23/01:00pm 24.9 S 20 25 1013.7 - 0.0 - - 10 - - - -
23/12:30pm 25.6 S 19 26 1014.0 - 0.0 - - 10 - - - -
23/12:00pm 25.1 S 20 26 1014.0 - 0.0 - - 10 - - - -
23/11:30am 24.5 S 20 27 1014.3 - 0.0 - - 10 - - - -
23/11:00am 24.1 S 19 26 1014.7 - 0.0 - - 10 - - - -
23/10:30am 24.2 S 17 25 1014.9 - 0.0 - Mostly clear 10 - - - -
23/10:00am 22.6 S 17 25 1015.1 - 0.0 - Mostly clear 10 - - - -
23/09:30am 22.3 S 19 24 1015.2 - 0.0 - Mostly clear 10 - - - -
23/09:00am 22.1 SSE 21 28 1015.0 - 0.0 - Mostly clear 8 - - - -
23/08:30am 21.2 SSE 21 25 1015.4 - 0.0 - Mostly clear 10 - - - -
23/08:00am 20.8 SE 17 23 1015.6 - 0.0 - Mostly clear 10 - - - -
23/07:30am 19.4 SSE 17 21 1015.4 - 0.0 - Mostly clear 10 - - - -
23/07:00am 18.3 SSE 13 17 1015.4 - 0.0 - - 10 - - - -
23/06:30am 17.1 SSE 10 13 1015.2 - 0.0 - Partly cloudy 10 - - - -
23/06:00am 16.8 SE 10 13 1014.7 - 0.0 - Partly cloudy 10 - - - -
23/05:30am 16.9 SE 10 13 1014.5 - 0.0 - Partly cloudy 10 - - - -
23/05:00am 17.4 SE 8 10 1014.1 - 0.0 - Partly cloudy 10 - - - -
23/04:30am 18.1 SE 11 14 1013.9 - 0.0 - Cloudy 10 - - - -
23/04:00am 19.2 S 16 23 1013.6 - 0.0 - Partly cloudy 10 - - - -
23/03:30am 18.8 S 16 21 1013.5 - 0.0 - Partly cloudy 10 - - - -
23/03:00am 19.2 S 17 22 1013.1 - 0.0 - Mostly cloudy 10 - - - -
23/02:30am 19.5 S 14 19 1013.3 - 0.0 - Cloudy 10 - - - -
23/02:00am 19.4 S 17 21 1013.4 - 0.0 - Cloudy 10 - - - -
23/01:30am 19.5 S 15 21 1013.5 - 0.0 - Cloudy 10 - - - -
23/01:00am 19.4 S 17 22 1013.5 - 0.0 - Cloudy 10 - - - -
23/12:30am 19.4 S 18 26 1013.5 - 0.0 - Cloudy 10 - - - -
23/12:26am 19.5 S 15 26 1013.6 - 0.0 - Cloudy 10 - - - -
23/12:00am 19.6 S 15 19 1013.5 - 0.0 - Cloudy 10 - - - -
 
Date/Time
WST
Temp
°C
Wind Pressure Rain since
9am
mm
Weather Cloud Vis
km
Sea
Height
m
Swell
Dir  Spd
kts
Gust
kts
hPa Trend Height
m
Period
s
Dir
22/11:30pm 19.6 S 18 23 1013.6 - 0.0 - Cloudy 10 - - - -
22/11:00pm 19.7 S 18 25 1013.7 - 0.0 - Cloudy 10 - - - -
22/10:30pm 19.7 S 19 26 1013.7 - 0.0 - Cloudy 10 - - - -
22/10:00pm 19.8 S 18 27 1013.5 - 0.0 - Cloudy 10 - - - -
22/09:30pm 19.9 S 19 25 1013.4 - 0.0 - Partly cloudy 10 - - - -
22/09:00pm 19.7 S 20 26 1013.1 - 0.0 - Mostly cloudy 10 - - - -
22/08:30pm 19.9 S 18 25 1013.1 - 0.0 - Partly cloudy 10 - - - -
22/08:00pm 20.0 S 18 25 1012.8 - 0.0 - Partly cloudy 10 - - - -
22/07:30pm 19.9 S 18 24 1012.4 - 0.0 - Partly cloudy 10 - - - -
22/07:00pm 20.3 S 19 25 1012.1 - 0.0 - Partly cloudy 10 - - - -
22/06:30pm 21.1 S 18 25 1011.5 - 0.0 - Partly cloudy 10 - - - -
22/06:00pm 21.6 S 19 25 1010.9 - 0.0 - Mostly clear 10 - - - -
22/05:30pm 21.7 S 19 25 1010.8 - 0.0 - Partly cloudy 10 - - - -
22/05:00pm 23.1 S 20 25 1010.8 - 0.0 - Partly cloudy 10 - - - -
22/04:30pm 22.4 S 19 27 1010.7 - 0.0 - Partly cloudy 10 - - - -
22/04:00pm 23.1 S 20 26 1010.7 - 0.0 - Partly cloudy 10 - - - -
22/03:30pm 24.6 S 20 26 1010.8 - 0.0 - Partly cloudy 10 - - - -
22/03:12pm 24.5 S 17 23 1010.9 - 0.0 - Partly cloudy 10 - - - -
22/03:00pm 24.2 SSW 20 26 1010.7 - 0.0 - Partly cloudy 10 - - - -
22/02:30pm 23.9 S 19 25 1011.2 - 0.0 - Cloudy 10 - - - -
22/02:00pm 24.1 SSW 21 26 1011.3 - 0.0 - Partly cloudy 10 - - - -
22/01:30pm 24.1 S 19 25 1011.4 - 0.0 - Partly cloudy 10 - - - -
22/01:00pm 25.1 S 21 27 1011.2 - 0.0 - Partly cloudy 10 - - - -
22/12:30pm 24.7 S 20 27 1011.2 - 0.0 - Partly cloudy 10 - - - -
22/12:00pm 24.8 S 19 25 1011.2 - 0.0 - Partly cloudy 10 - - - -
22/11:30am 24.2 S 20 26 1011.2 - 0.0 - Partly cloudy 10 - - - -
22/11:00am 24.1 S 19 26 1011.2 - 0.0 - Partly cloudy 10 - - - -
22/10:30am 23.7 S 19 24 1011.3 - 0.0 - Partly cloudy 10 - - - -
22/10:00am 22.9 S 19 27 1011.2 - 0.0 - Partly cloudy 10 - - - -
22/09:30am 23.3 S 20 28 1010.9 - 0.0 - Partly cloudy 10 - - - -
22/09:00am 22.1 S 19 23 1010.7 - 0.0 - Partly cloudy 10 - - - -
22/08:30am 22.0 S 17 23 1010.4 - 0.0 - Partly cloudy 10 - - - -
22/08:00am 21.7 S 16 22 1010.2 - 0.0 - Partly cloudy 10 - - - -
22/07:30am 21.3 S 18 25 1010.2 - 0.0 - Partly cloudy 10 - - - -
22/07:00am 20.5 S 15 20 1010.1 - 0.0 - Partly cloudy 10 - - - -
22/06:30am 19.9 S 15 19 1009.8 - 0.0 - Partly cloudy 10 - - - -
22/06:00am 19.4 S 13 16 1009.4 - 0.0 - Partly cloudy 10 - - - -
22/05:30am 19.3 S 11 15 1009.3 - 0.0 - Partly cloudy 10 - - - -
22/05:00am 19.6 S 13 19 1009.1 - 0.0 - Partly cloudy 10 - - - -
22/04:30am 19.6 S 14 21 1008.9 - 0.0 - Partly cloudy 10 - - - -
22/04:24am 19.5 S 15 21 1008.8 - 0.0 - Partly cloudy 10 - - - -
22/04:02am 19.5 S 14 18 1008.5 - 0.0 - Partly cloudy 10 - - - -
22/04:00am 19.5 S 14 18 1008.5 - 0.0 - Partly cloudy 10 - - - -
22/03:57am 19.4 S 13 18 1008.5 - 0.0 - Partly cloudy 10 - - - -
22/03:30am 19.4 S 13 16 1008.4 - 0.0 - Partly cloudy 10 - - - -
22/03:27am 19.5 S 13 16 1008.4 - 0.0 - Partly cloudy 10 - - - -
22/03:00am 19.2 S 13 17 1008.3 - 0.0 - Mostly clear 10 - - - -
22/02:30am 19.0 S 10 13 1008.4 - 0.0 - Partly cloudy 10 - - - -
22/02:00am 19.2 S 10 14 1008.4 - 0.0 - Partly cloudy 10 - - - -
22/01:30am 18.7 S 8 10 1008.5 - 0.0 - - 10 - - - -
22/01:00am 18.8 S 7 10 1008.8 - 0.0 - - 10 - - - -
22/12:30am 19.0 S 9 11 1009.0 - 0.0 - - 10 - - - -
22/12:00am 19.2 S 9 11 1008.9 - 0.0 - - 10 - - - -
 
Date/Time
WST
Temp
°C
Wind Pressure Rain since
9am
mm
Weather Cloud Vis
km
Sea
Height
m
Swell
Dir  Spd
kts
Gust
kts
hPa Trend Height
m
Period
s
Dir
21/11:30pm 19.3 S 7 10 1009.3 - 0.0 - - 10 - - - -
21/11:00pm 19.6 S 9 13 1009.2 - 0.0 - - 10 - - - -
21/10:30pm 19.6 S 10 14 1009.0 - 0.0 - - 10 - - - -
21/10:00pm 19.8 S 11 16 1008.9 - 0.0 - - 10 - - - -
21/09:30pm 20.0 S 11 14 1008.6 - 0.0 - - 10 - - - -
21/09:12pm 20.3 S 11 16 1008.5 - 0.0 - Partly cloudy 10 - - - -
21/09:00pm 20.4 S 12 17 1008.4 - 0.0 - Partly cloudy 10 - - - -
21/08:43pm 20.5 S 13 16 1008.5 - 0.0 - Partly cloudy 10 - - - -
21/08:30pm 20.6 S 12 15 1008.3 - 0.0 - Partly cloudy 10 - - - -
21/08:00pm 20.8 S 16 20 1008.1 - 0.0 - Partly cloudy 10 - - - -
21/07:30pm 21.0 S 15 19 1007.8 - 0.0 - Partly cloudy 10 - - - -
21/07:00pm 21.4 S 17 21 1007.3 - 0.0 - Partly cloudy 10 - - - -
21/06:30pm 22.5 S 15 21 1007.0 - 0.0 - - 10 - - - -
21/06:00pm 23.5 S 17 21 1006.5 - 0.0 - - 10 - - - -
21/05:30pm 24.2 S 16 21 1006.2 - 0.0 - - 10 - - - -
21/05:00pm 25.4 S 16 22 1006.0 - 0.0 - - 10 - - - -
21/04:30pm 25.7 S 16 21 1005.9 - 0.0 - - 10 - - - -
21/04:00pm 26.2 SSW 17 22 1005.9 - 0.0 - - 10 - - - -
21/03:30pm 26.8 SSW 16 21 1005.9 - 0.0 - - 10 - - - -
21/03:00pm 27.6 S 17 22 1005.6 - 0.0 - - 10 - - - -
21/02:30pm 27.3 SSW 14 18 1005.8 - 0.0 - - 10 - - - -
21/02:00pm 27.6 S 15 19 1005.8 - 0.0 - - 10 - - - -
21/01:30pm 27.1 SSW 16 20 1006.0 - 0.0 - - 10 - - - -
21/01:00pm 27.0 SSW 15 20 1006.1 - 0.0 - - 10 - - - -
21/12:30pm 26.6 S 15 20 1006.2 - 0.0 - - 10 - - - -
21/12:00pm 26.3 SSW 15 19 1006.2 - 0.0 - - 10 - - - -
21/11:30am 26.1 S 15 21 1006.5 - 0.0 - - 10 - - - -
21/11:00am 25.3 S 14 19 1006.7 - 0.0 - - 10 - - - -
21/10:30am 24.3 S 14 19 1006.9 - 0.0 - - 10 - - - -
21/10:00am 24.6 S 13 17 1007.0 - 0.0 - - 10 - - - -
21/09:30am 24.3 S 13 18 1006.8 - 0.0 - - 10 - - - -
21/09:00am 24.3 S 12 17 1006.8 - 0.0 - - 10 - - - -
21/08:30am 23.3 S 11 14 1006.9 - 0.0 - - 10 - - - -
21/08:00am 21.1 SSE 7 10 1007.0 - 0.0 - - 10 - - - -
21/07:30am 19.0 SSE 7 9 1007.2 - 0.0 - - 10 - - - -

Other Formats:

Comma delimited format used in spreadsheet applications
http://www.bom.gov.au/fwo/IDW60701/IDW60701.94403.axf

JavaScript Object Notation format (JSON) in row-major order
http://www.bom.gov.au/fwo/IDW60701/IDW60701.94403.json